Time;durP1;ratioP1;P1;durP2;ratioP2;P2;SDS_P1;SDS_P2;PMS_P1;PMS_P2;Temp;Humidity;BMP_temperature;BMP_pressure;BME280_temperature;BME280_humidity;BME280_pressure;Samples;Min_cycle;Max_cycle;Signal;HPM_P1;HPM_P2
2023/08/27 00:01:25;;;;;;;430.25;397.58;;;12.50;83.90;;;;;;5029742;28;20049;-60
2023/08/27 00:03:51;;;;;;;467.75;431.83;;;12.50;83.90;;;;;;5029211;28;20049;-59
2023/08/27 00:06:17;;;;;;;441.23;407.90;;;12.50;83.90;;;;;;5019151;28;20052;-59
2023/08/27 00:08:42;;;;;;;455.45;420.92;;;12.50;83.60;;;;;;5024006;28;20496;-59
2023/08/27 00:11:08;;;;;;;497.15;459.95;;;12.50;83.60;;;;;;5029385;28;20100;-59
2023/08/27 00:13:34;;;;;;;470.25;434.85;;;12.50;83.50;;;;;;5028149;28;20060;-59
2023/08/27 00:16:00;;;;;;;451.98;418.23;;;12.40;83.60;;;;;;5029333;28;20556;-59
2023/08/27 00:18:26;;;;;;;485.52;450.13;;;12.30;83.50;;;;;;5012400;28;20180;-60
2023/08/27 00:20:51;;;;;;;466.20;430.58;;;12.20;83.30;;;;;;5028995;28;20343;-59
2023/08/27 00:23:17;;;;;;;370.88;342.60;;;12.20;83.40;;;;;;5028487;28;20120;-59
2023/08/27 00:25:43;;;;;;;438.17;405.48;;;12.10;83.20;;;;;;5011195;28;20045;-59
2023/08/27 00:28:12;;;;;;;384.23;354.65;;;12.10;83.20;;;;;;5012517;28;20057;-59
2023/08/27 00:30:38;;;;;;;429.27;396.85;;;12.10;83.30;;;;;;5029451;28;20467;-59
2023/08/27 00:33:04;;;;;;;402.48;370.48;;;12.10;83.60;;;;;;5028582;28;20050;-59
2023/08/27 00:35:29;;;;;;;382.20;352.80;;;12.10;83.90;;;;;;5029379;28;20464;-59
2023/08/27 00:37:55;;;;;;;421.45;388.98;;;12.10;83.90;;;;;;5013173;28;20496;-59
2023/08/27 00:40:21;;;;;;;388.65;359.58;;;12.10;83.80;;;;;;5029311;28;20164;-59
2023/08/27 00:42:46;;;;;;;396.83;366.25;;;12.10;83.90;;;;;;5027946;28;20118;-59
2023/08/27 00:45:12;;;;;;;405.23;374.52;;;12.10;83.90;;;;;;5029420;28;20049;-59
2023/08/27 00:47:39;;;;;;;435.20;403.13;;;12.10;83.80;;;;;;5012473;28;20057;-59
2023/08/27 00:50:08;;;;;;;378.08;349.15;;;12.10;83.70;;;;;;5027324;28;20767;-59
2023/08/27 00:52:34;;;;;;;364.73;337.60;;;12.00;83.60;;;;;;5027232;28;20400;-59
2023/08/27 00:55:01;;;;;;;344.58;318.67;;;12.00;83.50;;;;;;5028716;28;20049;-59
2023/08/27 00:57:28;;;;;;;292.55;270.17;;;12.00;83.60;;;;;;4994056;28;20573;-59
2023/08/27 00:59:57;;;;;;;420.23;388.80;;;12.00;83.70;;;;;;5028597;28;20041;-59
2023/08/27 01:02:23;;;;;;;330.80;304.83;;;12.00;83.80;;;;;;5026901;28;20037;-59
2023/08/27 01:04:49;;;;;;;330.98;304.45;;;12.00;83.90;;;;;;5029145;28;20527;-59
2023/08/27 01:07:23;;;;;;;386.85;357.33;;;12.00;84.20;;;;;;5012991;28;20519;-59
2023/08/27 01:10:04;;;;;;;338.85;312.42;;;12.00;84.30;;;;;;5028731;28;20506;-59
2023/08/27 01:13:09;;;;;;;398.33;367.25;;;12.00;84.50;;;;;;5026774;28;20057;-59
2023/08/27 01:15:36;;;;;;;264.38;243.45;;;12.10;84.70;;;;;;4986552;28;20483;-59
2023/08/27 01:18:03;;;;;;;344.50;317.55;;;12.10;84.70;;;;;;4962025;28;20050;-59
2023/08/27 01:20:31;;;;;;;423.80;391.95;;;12.10;84.70;;;;;;4987406;28;20604;-59
2023/08/27 01:22:56;;;;;;;360.83;333.25;;;12.10;84.60;;;;;;5007612;28;20085;-59
2023/08/27 01:25:35;;;;;;;427.33;394.88;;;12.10;84.50;;;;;;5009356;28;20070;-59
2023/08/27 01:28:11;;;;;;;393.08;363.05;;;12.10;84.40;;;;;;4992444;28;20447;-59
2023/08/27 01:30:43;;;;;;;389.42;359.73;;;12.10;84.50;;;;;;5009022;28;20050;-60
2023/08/27 01:33:20;;;;;;;390.33;360.35;;;12.10;84.40;;;;;;5020214;28;20042;-59
2023/08/27 01:35:46;;;;;;;406.48;374.42;;;12.10;84.30;;;;;;5028532;28;20037;-59
2023/08/27 01:38:12;;;;;;;411.13;378.73;;;12.10;84.30;;;;;;5011788;28;20103;-59
2023/08/27 01:40:40;;;;;;;420.83;389.23;;;12.10;84.40;;;;;;5028987;28;20067;-59
2023/08/27 01:43:06;;;;;;;490.60;453.70;;;12.10;84.60;;;;;;5026673;28;20041;-59
2023/08/27 01:45:31;;;;;;;413.40;381.58;;;12.10;84.60;;;;;;5025094;28;20042;-60
2023/08/27 01:47:57;;;;;;;346.35;319.27;;;12.10;84.70;;;;;;5011791;28;20115;-59
2023/08/27 01:50:23;;;;;;;374.35;345.73;;;12.10;84.60;;;;;;5030560;28;20057;-59
2023/08/27 01:52:48;;;;;;;423.90;391.27;;;12.10;84.60;;;;;;5026773;28;20061;-59
2023/08/27 01:55:14;;;;;;;430.73;397.10;;;12.10;84.60;;;;;;5012672;28;20459;-59
2023/08/27 01:57:41;;;;;;;421.45;388.73;;;12.10;84.60;;;;;;5014186;28;20041;-59
2023/08/27 02:00:09;;;;;;;385.15;355.83;;;12.10;84.50;;;;;;5023402;28;20053;-59
2023/08/27 02:02:38;;;;;;;434.80;402.35;;;12.00;84.50;;;;;;5044592;28;20042;-59
2023/08/27 02:05:05;;;;;;;429.08;395.83;;;12.00;84.50;;;;;;5030578;28;20515;-59
2023/08/27 02:07:33;;;;;;;410.15;378.55;;;12.00;84.50;;;;;;5013802;28;20045;-59
2023/08/27 02:09:59;;;;;;;382.13;353.13;;;12.00;84.50;;;;;;5026610;28;20049;-59
2023/08/27 02:12:25;;;;;;;384.50;354.95;;;12.00;84.50;;;;;;5006365;28;20424;-59
2023/08/27 02:14:51;;;;;;;414.48;383.67;;;12.00;84.50;;;;;;5029656;28;20120;-59
2023/08/27 02:17:16;;;;;;;389.90;359.90;;;12.00;84.50;;;;;;5011730;28;20618;-59
2023/08/27 02:19:42;;;;;;;391.65;360.50;;;12.00;84.50;;;;;;5029433;28;20436;-59
2023/08/27 02:22:08;;;;;;;376.25;346.67;;;12.00;84.60;;;;;;5027135;28;20041;-60
2023/08/27 02:24:33;;;;;;;386.70;357.42;;;12.00;84.60;;;;;;5027362;28;20042;-59
2023/08/27 02:26:59;;;;;;;354.80;328.73;;;12.00;84.50;;;;;;5012888;28;20107;-59
2023/08/27 02:29:25;;;;;;;421.58;390.52;;;12.00;84.50;;;;;;5037732;28;20054;-60
2023/08/27 02:31:51;;;;;;;386.70;356.55;;;11.90;84.50;;;;;;5008357;28;20508;-60
2023/08/27 02:34:17;;;;;;;323.90;299.42;;;11.90;84.50;;;;;;5029673;28;20099;-60
2023/08/27 02:36:42;;;;;;;368.17;339.23;;;11.90;84.50;;;;;;5015035;28;20480;-60
2023/08/27 02:39:08;;;;;;;327.25;301.55;;;11.90;84.50;;;;;;5029776;28;20095;-59
2023/08/27 02:41:34;;;;;;;338.02;312.33;;;11.90;84.50;;;;;;5030663;28;20103;-60
2023/08/27 02:43:59;;;;;;;308.75;284.05;;;11.90;84.50;;;;;;5028491;28;20053;-60
2023/08/27 02:46:25;;;;;;;314.42;290.35;;;11.90;84.60;;;;;;5016574;28;20537;-60
2023/08/27 02:48:51;;;;;;;269.05;247.93;;;11.80;84.60;;;;;;5026151;28;20049;-60
2023/08/27 02:51:17;;;;;;;325.63;300.92;;;11.70;84.50;;;;;;5029166;28;20400;-60
2023/08/27 02:53:42;;;;;;;277.40;256.13;;;11.70;84.50;;;;;;4994975;28;20111;-59
2023/08/27 02:56:08;;;;;;;266.42;245.02;;;11.70;84.70;;;;;;4989908;28;20041;-60
2023/08/27 02:58:34;;;;;;;200.80;184.07;;;11.60;84.70;;;;;;4998063;28;20053;-60
2023/08/27 03:00:59;;;;;;;293.48;271.00;;;11.50;84.80;;;;;;5007079;28;20093;-60
2023/08/27 03:03:25;;;;;;;222.13;205.02;;;11.60;84.90;;;;;;5009632;28;20492;-60
2023/08/27 03:05:51;;;;;;;264.13;243.57;;;11.60;85.00;;;;;;5010890;28;20045;-59
2023/08/27 03:08:16;;;;;;;337.23;310.33;;;11.50;85.00;;;;;;4993579;28;20389;-60
2023/08/27 03:10:42;;;;;;;259.67;239.88;;;11.50;85.00;;;;;;5008334;28;20045;-60
2023/08/27 03:13:08;;;;;;;220.68;202.82;;;11.50;85.00;;;;;;5016671;28;20142;-60
2023/08/27 03:15:34;;;;;;;225.15;207.05;;;11.50;85.00;;;;;;5029171;28;20045;-60
2023/08/27 03:17:59;;;;;;;207.57;191.18;;;11.50;85.00;;;;;;5012097;28;20061;-60
2023/08/27 03:20:25;;;;;;;178.40;163.88;;;11.50;85.00;;;;;;5029235;28;20140;-59
2023/08/27 03:22:51;;;;;;;235.63;217.02;;;11.50;85.10;;;;;;5028921;28;20357;-59
2023/08/27 03:25:17;;;;;;;207.63;191.63;;;11.50;85.10;;;;;;5028418;28;20049;-59
2023/08/27 03:27:43;;;;;;;279.35;258.27;;;11.50;85.10;;;;;;5013902;28;20518;-59
2023/08/27 03:30:09;;;;;;;277.52;255.75;;;11.50;85.10;;;;;;5012860;28;20049;-60
2023/08/27 03:32:35;;;;;;;197.75;181.77;;;11.50;85.20;;;;;;5021357;28;20117;-59
2023/08/27 03:35:01;;;;;;;204.10;188.30;;;11.60;85.30;;;;;;5028961;28;20049;-59
2023/08/27 03:37:27;;;;;;;253.13;233.02;;;11.70;85.30;;;;;;5014047;28;20191;-59
2023/08/27 03:39:53;;;;;;;234.07;214.98;;;11.70;85.30;;;;;;5011383;28;20536;-60
2023/08/27 03:42:18;;;;;;;251.05;231.50;;;11.70;85.30;;;;;;5028835;28;20038;-59
2023/08/27 03:44:44;;;;;;;269.10;248.25;;;11.70;85.30;;;;;;5023134;28;20050;-59
2023/08/27 03:47:10;;;;;;;280.60;258.95;;;11.70;85.40;;;;;;4998495;28;20381;-60
2023/08/27 03:49:35;;;;;;;329.90;304.52;;;11.70;85.50;;;;;;5027830;28;20052;-60
2023/08/27 03:52:01;;;;;;;292.13;270.10;;;11.70;85.40;;;;;;5028287;28;20076;-54
2023/08/27 03:54:27;;;;;;;281.17;259.75;;;11.80;85.50;;;;;;5007324;28;20065;-60
2023/08/27 03:56:53;;;;;;;273.60;252.20;;;11.90;85.50;;;;;;4994673;28;20057;-59
2023/08/27 03:59:19;;;;;;;345.05;318.48;;;11.90;85.50;;;;;;5007665;28;20121;-59
2023/08/27 04:01:45;;;;;;;307.52;283.52;;;11.90;85.50;;;;;;5007024;28;20124;-59
2023/08/27 04:04:10;;;;;;;287.58;264.83;;;11.90;85.60;;;;;;5009809;28;20431;-59
2023/08/27 04:06:36;;;;;;;321.42;296.27;;;11.90;85.70;;;;;;4995453;28;20460;-59
2023/08/27 04:09:04;;;;;;;344.45;317.70;;;12.00;85.70;;;;;;4995440;28;20053;-59
2023/08/27 04:11:30;;;;;;;329.15;304.65;;;12.00;85.80;;;;;;5009413;28;20136;-60
2023/08/27 04:13:56;;;;;;;345.67;319.50;;;12.00;85.70;;;;;;5009139;28;20545;-59
2023/08/27 04:16:21;;;;;;;411.55;381.52;;;12.10;85.70;;;;;;5013364;28;20128;-60
2023/08/27 04:18:47;;;;;;;352.73;325.67;;;12.10;85.70;;;;;;5039926;28;20124;-59
2023/08/27 04:21:13;;;;;;;347.80;321.38;;;12.20;85.60;;;;;;5030909;28;20067;-59
2023/08/27 04:23:39;;;;;;;357.90;329.70;;;12.20;85.60;;;;;;5047302;28;20052;-60
2023/08/27 04:26:04;;;;;;;403.83;373.55;;;12.20;85.60;;;;;;5045948;28;20049;-60
2023/08/27 04:28:31;;;;;;;382.83;353.20;;;12.30;85.50;;;;;;5036056;28;20060;-59
2023/08/27 04:30:57;;;;;;;396.13;366.65;;;12.30;85.50;;;;;;5031436;28;20377;-59
2023/08/27 04:33:23;;;;;;;417.15;386.08;;;12.30;85.50;;;;;;5026935;28;20055;-59
2023/08/27 04:35:52;;;;;;;374.08;344.55;;;12.30;85.50;;;;;;5027588;28;20527;-60
2023/08/27 04:38:19;;;;;;;428.20;395.45;;;12.30;85.60;;;;;;5013512;28;20079;-59
2023/08/27 04:40:50;;;;;;;405.13;374.35;;;12.40;85.60;;;;;;5006229;28;20064;-60
2023/08/27 04:43:16;;;;;;;403.98;373.17;;;12.40;85.50;;;;;;5005517;28;20650;-59
2023/08/27 04:45:42;;;;;;;359.45;332.00;;;12.40;85.50;;;;;;5025983;28;20120;-59
2023/08/27 04:48:08;;;;;;;436.35;404.05;;;12.40;85.50;;;;;;4990919;28;20060;-60
2023/08/27 04:50:34;;;;;;;427.67;395.27;;;12.40;85.50;;;;;;5020096;28;20076;-59
2023/08/27 04:53:00;;;;;;;406.50;375.92;;;12.40;85.40;;;;;;5018520;28;20052;-60
2023/08/27 04:55:26;;;;;;;390.10;360.13;;;12.40;85.30;;;;;;5017221;28;20075;-60
2023/08/27 04:57:52;;;;;;;410.13;379.25;;;12.40;85.40;;;;;;5008699;28;20049;-59
2023/08/27 05:00:21;;;;;;;451.05;417.48;;;12.40;85.30;;;;;;5025149;28;20570;-59
2023/08/27 05:02:48;;;;;;;420.40;389.75;;;12.40;85.30;;;;;;5025834;28;20377;-60
2023/08/27 05:05:14;;;;;;;400.15;369.00;;;12.40;85.30;;;;;;5010466;28;20377;-60
2023/08/27 05:07:40;;;;;;;422.50;391.15;;;12.50;85.30;;;;;;5011805;28;20053;-59
2023/08/27 05:10:07;;;;;;;399.40;369.30;;;12.50;85.30;;;;;;5010609;28;20373;-60
2023/08/27 05:12:32;;;;;;;478.25;444.13;;;12.50;85.30;;;;;;5027327;28;20049;-59
2023/08/27 05:14:58;;;;;;;400.77;370.17;;;12.40;85.20;;;;;;5028330;28;20038;-59
2023/08/27 05:17:24;;;;;;;454.38;422.35;;;12.50;85.20;;;;;;5012012;28;20050;-59
2023/08/27 05:19:50;;;;;;;423.65;391.70;;;12.50;85.10;;;;;;5028461;28;20041;-59
2023/08/27 05:22:15;;;;;;;396.88;367.42;;;12.50;85.20;;;;;;5009776;28;20041;-60
2023/08/27 05:24:41;;;;;;;395.45;365.55;;;12.50;85.10;;;;;;5030155;28;20071;-59
2023/08/27 05:27:07;;;;;;;400.88;369.20;;;12.50;85.10;;;;;;4998314;28;20050;-59
2023/08/27 05:29:33;;;;;;;476.73;440.70;;;12.50;85.20;;;;;;5031915;28;20045;-60
2023/08/27 05:31:58;;;;;;;475.40;440.08;;;12.50;85.20;;;;;;5033822;28;20042;-60
2023/08/27 05:34:24;;;;;;;471.92;436.02;;;12.50;85.10;;;;;;5031058;28;20489;-59
2023/08/27 05:36:50;;;;;;;450.90;418.25;;;12.50;85.20;;;;;;5017011;28;20044;-59
2023/08/27 05:39:15;;;;;;;408.83;378.23;;;12.60;85.20;;;;;;5031817;28;20083;-59
2023/08/27 05:41:41;;;;;;;430.20;396.67;;;12.70;85.20;;;;;;5032460;28;20096;-59
2023/08/27 05:44:07;;;;;;;448.00;414.58;;;12.80;85.20;;;;;;5031389;28;20088;-60
2023/08/27 05:46:32;;;;;;;444.45;410.83;;;12.90;85.30;;;;;;5018804;28;20132;-59
2023/08/27 05:49:00;;;;;;;507.90;471.08;;;13.00;85.30;;;;;;5011559;28;20061;-59
2023/08/27 05:51:26;;;;;;;471.15;436.05;;;13.10;85.20;;;;;;5031813;28;20567;-60
2023/08/27 05:53:51;;;;;;;466.67;431.45;;;13.10;85.10;;;;;;5030606;28;20133;-59
2023/08/27 05:56:17;;;;;;;496.42;454.35;;;13.20;85.10;;;;;;5003500;28;20380;-59
2023/08/27 05:58:43;;;;;;;493.65;456.60;;;13.30;85.10;;;;;;5026701;28;20140;-60
2023/08/27 06:01:09;;;;;;;520.60;482.63;;;13.30;85.00;;;;;;5031683;28;20048;-60
2023/08/27 06:03:34;;;;;;;534.28;494.23;;;13.30;85.00;;;;;;5030280;28;20135;-60
2023/08/27 06:06:00;;;;;;;522.00;482.35;;;13.30;85.00;;;;;;5030223;28;20095;-60
2023/08/27 06:08:26;;;;;;;488.27;452.13;;;13.30;85.00;;;;;;5006681;28;20082;-59
2023/08/27 06:10:52;;;;;;;471.95;436.33;;;13.30;85.00;;;;;;5009006;28;20087;-59
2023/08/27 06:13:18;;;;;;;525.72;484.88;;;13.30;84.80;;;;;;5045969;28;20550;-59
2023/08/27 06:15:44;;;;;;;478.25;442.23;;;13.30;84.80;;;;;;5023948;28;20126;-59
2023/08/27 06:18:09;;;;;;;509.52;470.85;;;13.40;84.80;;;;;;5009215;28;20176;-60
2023/08/27 06:20:35;;;;;;;493.27;455.73;;;13.40;84.70;;;;;;5029285;28;20580;-59
2023/08/27 06:23:04;;;;;;;459.27;423.67;;;13.40;84.70;;;;;;5019216;28;20034;-59
2023/08/27 06:25:33;;;;;;;534.50;493.27;;;13.40;84.70;;;;;;5000771;28;20037;-59
2023/08/27 06:27:59;;;;;;;511.60;472.88;;;13.50;84.70;;;;;;5014655;28;20400;-59
2023/08/27 06:30:25;;;;;;;456.15;421.92;;;13.50;84.70;;;;;;5030671;28;20041;-60
2023/08/27 06:32:50;;;;;;;538.33;497.77;;;13.50;84.60;;;;;;5011694;28;20144;-60
2023/08/27 06:35:16;;;;;;;480.67;442.58;;;13.50;84.50;;;;;;5030775;28;20048;-60
2023/08/27 06:37:42;;;;;;;534.97;494.52;;;13.50;84.50;;;;;;5014582;28;20049;-60
2023/08/27 06:40:08;;;;;;;530.58;490.83;;;13.50;84.50;;;;;;5030985;28;20049;-60
2023/08/27 06:42:34;;;;;;;515.78;477.70;;;13.50;84.40;;;;;;5029806;28;20042;-59
2023/08/27 06:45:04;;;;;;;504.98;465.25;;;13.50;84.40;;;;;;5030045;28;20103;-59
2023/08/27 06:47:30;;;;;;;484.20;446.90;;;13.60;84.60;;;;;;5014406;28;20129;-60
2023/08/27 06:49:56;;;;;;;524.40;484.55;;;13.60;84.40;;;;;;5030065;28;20125;-59
2023/08/27 06:52:22;;;;;;;561.90;518.97;;;13.60;84.50;;;;;;5029036;28;20219;-59
2023/08/27 06:54:47;;;;;;;497.52;459.80;;;13.60;84.50;;;;;;5029622;28;20049;-60
2023/08/27 06:57:13;;;;;;;548.78;506.25;;;13.60;84.30;;;;;;5012564;28;20492;-60
2023/08/27 06:59:39;;;;;;;526.42;486.98;;;13.60;84.40;;;;;;5030186;28;20103;-59
2023/08/27 07:02:04;;;;;;;508.30;469.02;;;13.60;84.40;;;;;;5010774;28;20049;-59
2023/08/27 07:04:31;;;;;;;553.70;510.92;;;13.60;84.60;;;;;;5027665;28;20539;-59
2023/08/27 07:06:57;;;;;;;590.33;544.20;;;13.70;84.50;;;;;;5012438;28;21074;-59
2023/08/27 07:09:23;;;;;;;521.03;480.70;;;13.70;84.40;;;;;;5003613;28;20133;-60
2023/08/27 07:11:49;;;;;;;552.00;510.40;;;13.70;84.40;;;;;;4990905;28;20458;-60
2023/08/27 07:14:15;;;;;;;504.13;466.42;;;13.70;84.40;;;;;;5004560;28;20049;-59
2023/08/27 07:16:41;;;;;;;541.28;498.98;;;13.80;84.50;;;;;;4979145;28;20129;-60
2023/08/27 07:19:07;;;;;;;582.53;537.33;;;13.80;84.50;;;;;;5009193;28;20516;-59
2023/08/27 07:21:33;;;;;;;580.35;535.28;;;13.90;84.40;;;;;;5008494;28;20030;-60
2023/08/27 07:23:59;;;;;;;575.53;531.22;;;13.90;84.40;;;;;;5008450;28;20085;-60
2023/08/27 07:26:25;;;;;;;532.08;490.90;;;13.90;84.30;;;;;;4996536;28;20080;-59
2023/08/27 07:28:51;;;;;;;525.38;485.02;;;13.90;84.40;;;;;;5007473;28;20058;-59
2023/08/27 07:31:17;;;;;;;566.22;521.50;;;13.90;84.30;;;;;;5010766;28;20054;-59
2023/08/27 07:33:42;;;;;;;548.67;506.65;;;13.90;84.40;;;;;;5008669;28;20084;-59
2023/08/27 07:36:08;;;;;;;595.00;547.58;;;14.00;84.20;;;;;;5002603;28;20065;-60
2023/08/27 07:38:40;;;;;;;571.65;526.92;;;14.00;84.20;;;;;;5000551;28;20064;-59
2023/08/27 07:41:06;;;;;;;536.78;494.83;;;14.10;84.60;;;;;;5012232;28;20045;-59
2023/08/27 07:43:32;;;;;;;618.92;567.17;;;14.20;84.20;;;;;;5007719;28;20049;-59
2023/08/27 07:45:58;;;;;;;555.63;513.30;;;14.30;84.10;;;;;;5009682;28;20076;-59
2023/08/27 07:48:23;;;;;;;627.90;575.88;;;14.30;84.20;;;;;;4993680;28;20052;-59
2023/08/27 07:50:50;;;;;;;621.67;570.97;;;14.40;84.00;;;;;;5008219;28;20037;-59
2023/08/27 07:53:16;;;;;;;695.03;632.35;;;14.50;83.80;;;;;;5007687;28;20270;-60
2023/08/27 07:55:41;;;;;;;660.70;604.97;;;14.50;83.40;;;;;;5009661;28;20045;-60
2023/08/27 07:58:10;;;;;;;596.47;547.47;;;14.40;83.40;;;;;;4993497;28;20060;-60
2023/08/27 08:00:36;;;;;;;653.15;596.08;;;14.40;83.40;;;;;;4985907;28;20054;-60
2023/08/27 08:03:02;;;;;;;625.90;571.83;;;14.40;83.30;;;;;;4997852;28;20073;-60
2023/08/27 08:05:28;;;;;;;637.47;583.08;;;14.50;83.00;;;;;;5003627;28;20053;-60
2023/08/27 08:07:54;;;;;;;581.30;532.42;;;14.50;82.80;;;;;;4978730;28;20045;-59
2023/08/27 08:10:20;;;;;;;700.58;636.55;;;14.50;82.70;;;;;;4993800;28;20070;-60
2023/08/27 08:12:47;;;;;;;656.08;600.42;;;14.60;82.70;;;;;;4992284;28;20512;-60
2023/08/27 08:15:14;;;;;;;676.35;614.42;;;14.70;82.70;;;;;;4998031;28;20149;-60
2023/08/27 08:17:40;;;;;;;648.22;589.00;;;14.80;82.20;;;;;;4979915;28;20045;-60
2023/08/27 08:20:06;;;;;;;704.90;638.92;;;14.80;82.00;;;;;;4993560;28;20057;-60
2023/08/27 08:22:32;;;;;;;620.92;566.95;;;14.90;81.50;;;;;;4996368;28;20542;-60
2023/08/27 08:24:57;;;;;;;580.28;531.47;;;14.90;81.40;;;;;;5023580;28;20328;-60
2023/08/27 08:27:24;;;;;;;739.95;669.10;;;15.00;80.80;;;;;;5020529;28;20493;-59
2023/08/27 08:29:50;;;;;;;690.15;627.50;;;15.00;81.10;;;;;;5031368;28;20107;-60
2023/08/27 08:32:15;;;;;;;625.65;572.17;;;15.10;80.30;;;;;;5029381;28;20057;-60
2023/08/27 08:34:41;;;;;;;615.08;563.95;;;15.20;79.90;;;;;;5024710;28;20053;-60
2023/08/27 08:37:07;;;;;;;669.00;611.85;;;15.20;79.70;;;;;;5010103;28;20178;-60
2023/08/27 08:39:34;;;;;;;648.40;589.80;;;15.30;80.00;;;;;;5025593;28;20127;-60
2023/08/27 08:42:18;;;;;;;621.65;568.80;;;15.40;79.80;;;;;;5026691;28;20550;-59
2023/08/27 08:44:46;;;;;;;635.42;584.80;;;15.50;79.90;;;;;;5038319;28;20041;-60
2023/08/27 08:47:15;;;;;;;627.67;574.42;;;15.60;79.40;;;;;;5015750;28;20048;-60
2023/08/27 08:49:43;;;;;;;624.83;574.25;;;15.50;79.10;;;;;;5025701;28;20107;-60
2023/08/27 08:52:14;;;;;;;580.80;534.70;;;15.60;78.60;;;;;;5023876;28;20518;-59
2023/08/27 08:54:42;;;;;;;606.55;557.75;;;15.60;78.60;;;;;;5026228;28;20045;-60
2023/08/27 08:57:12;;;;;;;684.72;618.97;;;15.60;78.20;;;;;;5023552;28;20124;-59
2023/08/27 08:59:39;;;;;;;646.33;587.90;;;15.60;78.30;;;;;;5030590;28;20081;-59
2023/08/27 09:02:08;;;;;;;673.70;613.58;;;15.70;78.50;;;;;;5029685;28;20468;-59
2023/08/27 09:04:35;;;;;;;634.97;582.67;;;15.80;78.40;;;;;;5030984;28;20060;-60
2023/08/27 09:07:03;;;;;;;724.50;655.67;;;16.00;78.20;;;;;;5022567;28;20505;-60
2023/08/27 09:09:31;;;;;;;669.53;610.15;;;16.00;77.70;;;;;;5029241;28;20576;-60
2023/08/27 09:12:00;;;;;;;628.05;578.15;;;16.00;77.20;;;;;;5039050;28;20127;-60
2023/08/27 09:14:25;;;;;;;618.88;568.63;;;16.00;77.00;;;;;;5040628;28;20045;-59
2023/08/27 09:16:52;;;;;;;631.22;580.08;;;16.00;76.90;;;;;;5013264;28;20119;-59
2023/08/27 09:19:18;;;;;;;624.00;572.35;;;16.10;77.00;;;;;;5027416;28;20060;-60
2023/08/27 09:21:44;;;;;;;682.92;625.53;;;16.20;77.00;;;;;;5021915;28;20060;-59
2023/08/27 09:24:11;;;;;;;657.67;604.65;;;16.40;76.60;;;;;;5025059;28;20061;-60
2023/08/27 09:26:38;;;;;;;702.40;643.08;;;16.50;76.70;;;;;;5023188;28;20122;-59
2023/08/27 09:29:07;;;;;;;709.78;644.97;;;16.50;76.00;;;;;;5047801;28;20071;-59
2023/08/27 09:31:41;;;;;;;711.90;647.58;;;16.50;75.70;;;;;;5036048;28;20053;-60
2023/08/27 09:34:07;;;;;;;663.35;609.55;;;16.50;75.30;;;;;;5034143;28;20055;-60
2023/08/27 09:36:37;;;;;;;710.58;649.55;;;16.60;75.60;;;;;;5025525;28;20154;-60
2023/08/27 09:39:08;;;;;;;628.10;577.42;;;16.70;75.30;;;;;;5037452;28;20057;-59
2023/08/27 09:41:37;;;;;;;710.63;645.90;;;16.70;75.10;;;;;;5038349;28;20049;-59
2023/08/27 09:44:03;;;;;;;729.97;668.20;;;16.70;75.00;;;;;;5040916;28;20461;-60
2023/08/27 09:46:29;;;;;;;658.33;604.85;;;16.60;74.70;;;;;;5029013;28;20052;-60
2023/08/27 09:48:59;;;;;;;707.58;647.45;;;16.60;74.30;;;;;;5042955;28;20049;-59
2023/08/27 09:51:28;;;;;;;683.67;625.45;;;16.50;74.70;;;;;;5031662;28;20048;-59
2023/08/27 09:53:54;;;;;;;632.88;582.38;;;16.50;74.40;;;;;;5031021;28;20140;-60
2023/08/27 09:56:27;;;;;;;799.72;722.83;;;16.60;75.00;;;;;;5015633;28;20131;-60
2023/08/27 09:58:54;;;;;;;651.13;600.00;;;16.80;74.30;;;;;;5032670;28;20538;-60
2023/08/27 10:01:26;;;;;;;665.90;612.10;;;16.80;73.60;;;;;;5027340;28;20057;-60
2023/08/27 10:03:51;;;;;;;609.90;562.60;;;16.80;72.80;;;;;;5032806;28;20142;-59
2023/08/27 10:06:17;;;;;;;771.42;695.58;;;16.80;72.40;;;;;;5032134;28;20448;-60
2023/08/27 10:08:53;;;;;;;761.53;686.47;;;16.70;72.30;;;;;;5039610;28;20054;-59
2023/08/27 10:11:22;;;;;;;750.30;675.97;;;16.70;71.70;;;;;;5019818;28;20124;-60
2023/08/27 10:13:48;;;;;;;634.33;582.58;;;16.70;71.90;;;;;;5015975;28;20485;-60
2023/08/27 10:16:15;;;;;;;741.70;673.30;;;16.80;72.30;;;;;;5012659;28;20053;-60
2023/08/27 10:18:41;;;;;;;800.65;719.78;;;16.90;72.20;;;;;;5023636;28;20057;-60
2023/08/27 10:21:10;;;;;;;705.42;647.58;;;17.00;72.50;;;;;;5030313;28;20132;-60
2023/08/27 10:23:39;;;;;;;783.03;705.25;;;17.20;72.30;;;;;;5028960;28;20543;-60
2023/08/27 10:26:07;;;;;;;807.85;724.15;;;17.20;72.00;;;;;;5035089;28;20045;-60
2023/08/27 10:28:34;;;;;;;656.85;605.78;;;17.40;72.10;;;;;;5023667;28;20574;-60
2023/08/27 10:31:00;;;;;;;789.40;709.17;;;17.50;71.90;;;;;;5030356;28;20065;-60
2023/08/27 10:33:26;;;;;;;636.38;586.53;;;17.50;71.50;;;;;;5038358;28;20106;-59
2023/08/27 10:35:53;;;;;;;800.95;718.85;;;17.50;71.20;;;;;;5035425;28;20060;-60
2023/08/27 10:38:23;;;;;;;717.47;650.80;;;17.40;71.50;;;;;;5041579;28;20061;-60
2023/08/27 10:40:50;;;;;;;745.78;673.38;;;17.30;71.90;;;;;;5030120;28;20428;-60
2023/08/27 10:43:18;;;;;;;624.35;574.28;;;17.20;71.80;;;;;;5040471;28;20048;-60
2023/08/27 10:45:44;;;;;;;676.28;621.72;;;17.20;72.30;;;;;;5030584;28;20057;-60
2023/08/27 10:48:16;;;;;;;813.38;733.05;;;17.20;72.60;;;;;;5007918;28;20049;-60
2023/08/27 10:50:51;;;;;;;830.97;746.95;;;17.20;72.00;;;;;;5025406;28;20084;-60
2023/08/27 10:53:18;;;;;;;800.10;719.30;;;17.20;71.90;;;;;;5024738;28;20412;-60
2023/08/27 10:55:50;;;;;;;629.60;581.20;;;17.30;72.00;;;;;;5023636;28;20113;-59
2023/08/27 10:58:21;;;;;;;668.92;611.60;;;17.40;71.50;;;;;;5008964;28;20057;-60
2023/08/27 11:01:10;;;;;;;617.45;566.97;;;17.50;71.10;;;;;;5024906;28;20566;-60
2023/08/27 11:03:58;;;;;;;779.60;701.17;;;17.80;70.50;;;;;;5010316;28;20499;-60
2023/08/27 11:06:46;;;;;;;723.47;653.15;;;18.00;70.00;;;;;;5008540;28;20499;-60
2023/08/27 11:09:12;;;;;;;714.00;645.20;;;18.00;69.00;;;;;;5021026;28;20054;-60
2023/08/27 11:11:52;;;;;;;766.13;696.53;;;18.00;69.80;;;;;;5028073;28;20055;-60
2023/08/27 11:14:19;;;;;;;784.58;711.40;;;18.00;69.00;;;;;;5027761;28;20087;-60
2023/08/27 11:16:46;;;;;;;786.83;715.67;;;18.00;69.80;;;;;;5026591;28;20049;-60
2023/08/27 11:19:12;;;;;;;874.65;780.22;;;17.80;67.90;;;;;;5026839;28;20072;-60
2023/08/27 11:21:38;;;;;;;840.55;752.17;;;17.50;68.40;;;;;;5027460;28;20124;-60
2023/08/27 11:24:16;;;;;;;686.47;626.38;;;17.20;68.40;;;;;;5028922;28;20152;-60
2023/08/27 11:26:42;;;;;;;782.45;709.85;;;16.80;69.70;;;;;;5020252;28;20049;-60
2023/08/27 11:29:09;;;;;;;703.38;641.25;;;16.50;71.20;;;;;;5034925;28;20138;-60
2023/08/27 11:31:42;;;;;;;660.33;606.47;;;16.20;72.10;;;;;;5030174;28;20080;-61
2023/08/27 11:34:12;;;;;;;844.25;757.28;;;15.70;73.70;;;;;;5035948;28;20049;-60
2023/08/27 11:36:40;;;;;;;665.13;608.83;;;15.40;74.20;;;;;;5025297;28;20049;-60
2023/08/27 11:39:09;;;;;;;678.65;619.97;;;15.10;75.10;;;;;;5035290;28;20084;-61
2023/08/27 11:41:37;;;;;;;689.53;628.72;;;14.90;75.40;;;;;;5033808;28;20102;-60
2023/08/27 11:44:06;;;;;;;671.17;612.17;;;14.80;76.20;;;;;;5030450;28;20136;-60
2023/08/27 11:46:33;;;;;;;740.22;671.17;;;14.80;76.50;;;;;;5004725;28;20049;-60
2023/08/27 11:48:59;;;;;;;896.58;777.40;;;14.90;77.20;;;;;;5024384;28;20045;-59
2023/08/27 11:51:25;;;;;;;888.88;791.97;;;14.90;76.50;;;;;;5028403;28;20428;-60
2023/08/27 11:53:52;;;;;;;771.72;689.22;;;15.00;76.70;;;;;;5026792;28;20049;-60
2023/08/27 11:56:18;;;;;;;812.50;728.85;;;15.00;76.90;;;;;;5023662;28;20049;-60
2023/08/27 11:58:54;;;;;;;790.90;702.53;;;15.00;76.00;;;;;;5028376;28;20137;-60
2023/08/27 12:01:20;;;;;;;826.95;735.10;;;14.90;76.50;;;;;;5033320;28;20431;-60
2023/08/27 12:03:51;;;;;;;750.80;674.35;;;14.60;77.60;;;;;;5026071;28;20073;-60
2023/08/27 12:06:25;;;;;;;701.70;633.33;;;14.30;78.30;;;;;;5015449;28;20046;-60
2023/08/27 12:08:55;;;;;;;809.95;723.33;;;14.10;78.30;;;;;;5021923;28;20057;-60